This is the latest recevied weather packets stored in our database for station/object OH2HCY. If no packets are shown the sender has not sent any weather packets the latest 10 day(s).
| Time | Temp. | Humidity | Pressure | Rain* | Wind** | Luminosity | Snow |
|---|---|---|---|---|---|---|---|
| 1778180435 | 8.33° C | 38% | 1015.2 hPa | - | - | - | - |
| 1778179885 | 8.33° C | 37% | 1015 hPa | - | - | - | - |
| 1778179360 | 8.89° C | 36% | 1014.8 hPa | - | - | - | - |
| 1778178805 | 8.89° C | 35% | 1014.7 hPa | - | - | - | - |
| 1778178290 | 9.44° C | 34% | 1014.5 hPa | - | - | - | - |
| 1778177719 | 9.44° C | 33% | 1014.4 hPa | - | - | - | - |
| 1778177209 | 10° C | 33% | 1014.1 hPa | - | - | - | - |
| 1778176670 | 10° C | 33% | 1014.1 hPa | - | - | - | - |
| 1778176120 | 10° C | 32% | 1014 hPa | - | - | - | - |
| 1778175560 | 10° C | 32% | 1013.9 hPa | - | - | - | - |
| 1778175001 | 10.56° C | 31% | 1013.6 hPa | - | - | - | - |
| 1778174439 | 10.56° C | 29% | 1013.3 hPa | - | - | - | - |
| 1778173885 | 11.11° C | 30% | 1013.1 hPa | - | - | - | - |
| 1778173340 | 11.11° C | 30% | 1013.2 hPa | - | - | - | - |
| 1778172835 | 10.56° C | 30% | 1013.1 hPa | - | - | - | - |
| 1778172315 | 11.11° C | 30% | 1013.1 hPa | - | - | - | - |
| 1778171790 | 10.56° C | 29% | 1013 hPa | - | - | - | - |
| 1778171246 | 11.11° C | 29% | 1012.8 hPa | - | - | - | - |
| 1778170665 | 11.67° C | 29% | 1012.5 hPa | - | - | - | - |
| 1778170110 | 11.67° C | 28% | 1012.4 hPa | - | - | - | - |
| 1778169550 | 11.67° C | 29% | 1012.5 hPa | - | - | - | - |
| 1778168994 | 11.67° C | 29% | 1012.3 hPa | - | - | - | - |
| 1778168430 | 11.67° C | 30% | 1012.2 hPa | - | - | - | - |
| 1778167874 | 12.22° C | 28% | 1012 hPa | - | - | - | - |
| 1778167330 | 11.67° C | 25% | 1012 hPa | - | - | - | - |
* Rain since midnight (hover to see other rain measurements)
** Current wind speed in m/s (hover to see current wind gust speed)